Time;durP1;ratioP1;P1;durP2;ratioP2;P2;SDS_P1;SDS_P2;PMS_P1;PMS_P2;Temp;Humidity;BMP_temperature;BMP_pressure;BME280_temperature;BME280_humidity;BME280_pressure;Samples;Min_cycle;Max_cycle;Signal;HPM_P1;HPM_P2
2021/06/25 00:00:40;;;;;;;;;24.75;22.25;;;;;-147.17;100.00;59696.56;4954916;28;51108;-54
2021/06/25 00:03:06;;;;;;;;;27.50;24.50;;;;;-147.17;100.00;59696.56;4972768;28;51098;-54
2021/06/25 00:05:31;;;;;;;;;27.00;26.00;;;;;-147.17;100.00;59696.56;4976017;28;51106;-54
2021/06/25 00:07:57;;;;;;;;;29.00;28.00;;;;;-147.17;100.00;59696.56;4954429;28;52270;-54
2021/06/25 00:10:22;;;;;;;;;28.75;28.00;;;;;-147.17;100.00;59696.56;4977721;28;51001;-55
2021/06/25 00:12:48;;;;;;;;;26.00;26.00;;;;;-147.17;100.00;59696.56;4992274;28;51287;-54
2021/06/25 00:15:14;;;;;;;;;25.75;23.75;;;;;-147.17;100.00;59696.56;4989672;28;51325;-55
2021/06/25 00:17:40;;;;;;;;;25.25;24.00;;;;;-147.17;100.00;59696.56;4979992;28;51234;-54
2021/06/25 00:20:07;;;;;;;;;26.25;24.50;;;;;-147.17;100.00;59696.56;4972537;28;50995;-55
2021/06/25 00:22:34;;;;;;;;;30.00;28.75;;;;;-147.17;100.00;59696.56;4955158;28;51024;-52
2021/06/25 00:24:59;;;;;;;;;28.25;26.25;;;;;-147.17;100.00;59696.56;4976311;28;51377;-55
2021/06/25 00:27:25;;;;;;;;;28.00;27.75;;;;;-147.17;100.00;59696.56;4989144;28;51132;-54
2021/06/25 00:29:50;;;;;;;;;30.25;28.75;;;;;-147.17;100.00;59696.56;4973018;28;51162;-54
2021/06/25 00:32:16;;;;;;;;;27.00;26.50;;;;;-147.17;100.00;59696.56;4980113;28;51502;-53
2021/06/25 00:34:41;;;;;;;;;28.50;26.50;;;;;-147.17;100.00;59696.56;4982778;28;51137;-54
2021/06/25 00:37:07;;;;;;;;;29.50;27.25;;;;;-147.17;100.00;59696.56;4987367;28;52102;-54
2021/06/25 00:39:33;;;;;;;;;26.00;25.25;;;;;-147.17;100.00;59696.56;4980257;28;51215;-54
2021/06/25 00:41:58;;;;;;;;;28.50;28.00;;;;;-147.17;100.00;59696.56;4991738;28;51127;-53
2021/06/25 00:44:24;;;;;;;;;26.25;25.00;;;;;-147.17;100.00;59696.56;4992175;28;50949;-55
2021/06/25 00:46:49;;;;;;;;;27.50;26.50;;;;;-147.17;100.00;59696.56;4979230;28;51170;-54
2021/06/25 00:49:16;;;;;;;;;29.25;27.50;;;;;-147.17;100.00;59696.56;4975449;28;51109;-53
2021/06/25 00:51:42;;;;;;;;;28.75;27.00;;;;;-147.17;100.00;59696.56;4975945;28;51261;-55
2021/06/25 00:54:09;;;;;;;;;26.25;25.25;;;;;-147.17;100.00;59696.56;4975660;28;50975;-55
2021/06/25 00:56:36;;;;;;;;;27.00;23.75;;;;;-147.17;100.00;59696.56;4961367;28;51869;-54
2021/06/25 00:59:02;;;;;;;;;31.25;29.25;;;;;-147.17;100.00;59696.56;4975403;28;51027;-57
2021/06/25 01:01:27;;;;;;;;;29.25;28.25;;;;;-147.17;100.00;59696.56;4958472;28;51086;-55
2021/06/25 01:03:53;;;;;;;;;26.25;25.00;;;;;-147.17;100.00;59696.56;4982374;28;51268;-55
2021/06/25 01:06:18;;;;;;;;;31.50;26.75;;;;;-147.17;100.00;59696.56;4993807;28;51823;-56
2021/06/25 01:08:44;;;;;;;;;26.50;26.00;;;;;-147.17;100.00;59696.56;4978035;28;50992;-58
2021/06/25 01:11:09;;;;;;;;;25.50;24.75;;;;;-147.17;100.00;59696.56;4983735;28;51049;-56
2021/06/25 01:13:40;;;;;;;;;26.50;24.25;;;;;-147.17;100.00;59696.56;4975794;28;51340;-54
2021/06/25 01:16:06;;;;;;;;;29.50;28.50;;;;;-147.17;100.00;59696.56;4975703;28;51954;-60
2021/06/25 01:18:32;;;;;;;;;28.00;27.00;;;;;-147.17;100.00;59696.56;4974406;28;51112;-55
2021/06/25 01:20:59;;;;;;;;;27.50;26.75;;;;;-147.17;100.00;59696.56;4980789;28;51365;-57
2021/06/25 01:23:25;;;;;;;;;32.50;30.75;;;;;-147.17;100.00;59696.56;4975493;28;51082;-54
2021/06/25 01:25:50;;;;;;;;;29.25;27.50;;;;;-147.17;100.00;59696.56;4975247;28;51697;-55
2021/06/25 01:28:16;;;;;;;;;25.75;25.75;;;;;-147.17;100.00;59696.56;4975228;28;51046;-52
2021/06/25 01:30:44;;;;;;;;;25.00;23.50;;;;;-147.17;100.00;59696.56;4988920;28;51108;-53
2021/06/25 01:33:13;;;;;;;;;27.25;27.00;;;;;-147.17;100.00;59696.56;4975194;28;51338;-54
2021/06/25 01:35:39;;;;;;;;;28.25;27.00;;;;;-147.17;100.00;59696.56;4993211;28;51954;-55
2021/06/25 01:38:05;;;;;;;;;26.75;26.75;;;;;-147.17;100.00;59696.56;4989136;28;51085;-55
2021/06/25 01:40:32;;;;;;;;;28.50;26.75;;;;;-147.17;100.00;59696.56;4963964;28;51298;-55
2021/06/25 01:43:00;;;;;;;;;29.50;28.00;;;;;-147.17;100.00;59696.56;4974795;28;51165;-52
2021/06/25 01:45:28;;;;;;;;;29.50;27.50;;;;;-147.17;100.00;59696.56;4974765;28;51050;-55
2021/06/25 01:47:54;;;;;;;;;29.50;28.25;;;;;-147.17;100.00;59696.56;4989475;28;51186;-54
2021/06/25 01:50:23;;;;;;;;;24.50;23.75;;;;;-147.17;100.00;59696.56;4980887;28;51074;-56
2021/06/25 01:52:53;;;;;;;;;26.50;26.50;;;;;-147.17;100.00;59696.56;4974988;28;51299;-55
2021/06/25 01:55:20;;;;;;;;;27.25;27.00;;;;;-147.17;100.00;59696.56;4974285;28;52094;-54
2021/06/25 01:57:45;;;;;;;;;30.75;29.50;;;;;-147.17;100.00;59696.56;4976699;28;50924;-53
2021/06/25 02:00:12;;;;;;;;;26.00;24.75;;;;;-147.17;100.00;59696.56;4979880;28;51081;-52
2021/06/25 02:02:38;;;;;;;;;28.50;28.00;;;;;-147.17;100.00;59696.56;4976178;28;51461;-53
2021/06/25 02:05:06;;;;;;;;;31.75;29.50;;;;;-147.17;100.00;59696.56;4979309;28;51914;-52
2021/06/25 02:07:32;;;;;;;;;28.50;26.75;;;;;-147.17;100.00;59696.56;4974115;28;50989;-54
2021/06/25 02:09:57;;;;;;;;;30.75;29.00;;;;;-147.17;100.00;59696.56;4992556;28;51470;-56
2021/06/25 02:12:24;;;;;;;;;27.75;27.00;;;;;-147.17;100.00;59696.56;4994575;28;51076;-55
2021/06/25 02:14:50;;;;;;;;;30.75;29.50;;;;;-147.17;100.00;59696.56;4993856;28;52010;-53
2021/06/25 02:17:18;;;;;;;;;30.00;27.50;;;;;-147.17;100.00;59696.56;4993865;28;50979;-53
2021/06/25 02:19:43;;;;;;;;;26.50;26.25;;;;;-147.17;100.00;59696.56;4992972;28;51145;-55
2021/06/25 02:22:09;;;;;;;;;25.75;24.75;;;;;-147.17;100.00;59696.56;4994222;28;51382;-55
2021/06/25 02:24:35;;;;;;;;;26.25;25.50;;;;;-147.17;100.00;59696.56;4993604;28;52259;-55
2021/06/25 02:27:00;;;;;;;;;26.50;25.50;;;;;-147.17;100.00;59696.56;4993608;28;51096;-54
2021/06/25 02:29:25;;;;;;;;;28.75;28.50;;;;;-147.17;100.00;59696.56;4979044;28;50979;-55
2021/06/25 02:31:52;;;;;;;;;31.75;27.25;;;;;-147.17;100.00;59696.56;4975810;28;51744;-54
2021/06/25 02:34:17;;;;;;;;;32.50;29.50;;;;;-147.17;100.00;59696.56;4981830;28;51921;-56
2021/06/25 02:36:42;;;;;;;;;29.00;28.00;;;;;-147.17;100.00;59696.56;4985267;28;50960;-54
2021/06/25 02:39:08;;;;;;;;;24.50;23.50;;;;;-147.17;100.00;59696.56;4994433;28;51017;-54
2021/06/25 02:41:33;;;;;;;;;28.75;27.25;;;;;-147.17;100.00;59696.56;4974303;28;51316;-59
2021/06/25 02:43:59;;;;;;;;;26.25;26.00;;;;;-147.17;100.00;59696.56;4973780;28;51044;-56
2021/06/25 02:46:24;;;;;;;;;35.00;30.75;;;;;-147.17;100.00;59696.56;4974097;28;50911;-54
2021/06/25 02:48:49;;;;;;;;;33.00;31.50;;;;;-147.17;100.00;59696.56;4981822;28;51136;-54
2021/06/25 02:51:15;;;;;;;;;33.50;32.00;;;;;-147.17;100.00;59696.56;4974125;28;51335;-55
2021/06/25 02:53:40;;;;;;;;;27.75;27.00;;;;;-147.17;100.00;59696.56;4973683;28;51026;-53
2021/06/25 02:56:05;;;;;;;;;30.50;27.75;;;;;-147.17;100.00;59696.56;4974169;28;50993;-53
2021/06/25 02:58:31;;;;;;;;;30.50;29.75;;;;;-147.17;100.00;59696.56;4991715;28;51210;-54
2021/06/25 03:00:56;;;;;;;;;30.75;29.25;;;;;-147.17;100.00;59696.56;4993776;28;51386;-55
2021/06/25 03:03:22;;;;;;;;;29.25;28.25;;;;;-147.17;100.00;59696.56;4992950;28;50938;-54
2021/06/25 03:05:48;;;;;;;;;30.50;30.25;;;;;-147.17;100.00;59696.56;4992059;28;51061;-54
2021/06/25 03:08:14;;;;;;;;;25.75;24.75;;;;;-147.17;100.00;59696.56;4979189;28;51077;-54
2021/06/25 03:10:42;;;;;;;;;31.50;30.25;;;;;-147.17;100.00;59696.56;4973721;28;51268;-53
2021/06/25 03:13:08;;;;;;;;;33.50;31.25;;;;;-147.17;100.00;59696.56;4973405;28;51046;-54
2021/06/25 03:15:33;;;;;;;;;31.75;27.25;;;;;-147.17;100.00;59696.56;4983324;28;50873;-53
2021/06/25 03:17:59;;;;;;;;;30.50;29.00;;;;;-147.17;100.00;59696.56;4974153;28;50932;-55
2021/06/25 03:20:24;;;;;;;;;34.25;31.75;;;;;-147.17;100.00;59696.56;4973787;28;50864;-54
2021/06/25 03:22:50;;;;;;;;;31.25;30.50;;;;;-147.17;100.00;59696.56;4955799;28;51925;-55
2021/06/25 03:25:15;;;;;;;;;29.50;27.00;;;;;-147.17;100.00;59696.56;4973573;28;51090;-51
2021/06/25 03:27:41;;;;;;;;;32.00;31.00;;;;;-147.17;100.00;59696.56;4984325;28;51064;-54
2021/06/25 03:30:08;;;;;;;;;30.25;29.00;;;;;-147.17;100.00;59696.56;4973467;28;50970;-53
2021/06/25 03:32:34;;;;;;;;;31.50;30.25;;;;;-147.17;100.00;59696.56;4972930;28;52116;-53
2021/06/25 03:35:00;;;;;;;;;39.75;33.75;;;;;-147.17;100.00;59696.56;4969304;28;51159;-54
2021/06/25 03:37:26;;;;;;;;;32.50;30.50;;;;;-147.17;100.00;59696.56;4987152;28;51060;-53
2021/06/25 03:39:51;;;;;;;;;29.75;29.00;;;;;-147.17;100.00;59696.56;4955786;28;51015;-52
2021/06/25 03:42:17;;;;;;;;;31.75;31.50;;;;;-147.17;100.00;59696.56;4972891;28;51148;-53
2021/06/25 03:44:42;;;;;;;;;33.50;30.75;;;;;-147.17;100.00;59696.56;4974138;28;51030;-54
2021/06/25 03:47:08;;;;;;;;;31.75;29.75;;;;;-147.17;100.00;59696.56;4976765;28;51558;-55
2021/06/25 03:49:33;;;;;;;;;33.00;31.25;;;;;-147.17;100.00;59696.56;4956083;28;51050;-55
2021/06/25 03:51:59;;;;;;;;;35.25;33.00;;;;;-147.17;100.00;59696.56;4972021;28;52094;-54
2021/06/25 03:54:24;;;;;;;;;28.75;26.75;;;;;-147.17;100.00;59696.56;4973031;28;50916;-53
2021/06/25 03:56:50;;;;;;;;;30.50;28.75;;;;;-147.17;100.00;59696.56;4959016;28;50970;-54
2021/06/25 03:59:15;;;;;;;;;31.75;30.75;;;;;-147.17;100.00;59696.56;4973428;28;50895;-56
2021/06/25 04:01:42;;;;;;;;;31.75;31.25;;;;;-147.17;100.00;59696.56;4972437;28;51986;-54
2021/06/25 04:04:07;;;;;;;;;27.75;27.50;;;;;-147.17;100.00;59696.56;4973038;28;51144;-52
2021/06/25 04:06:33;;;;;;;;;33.00;31.25;;;;;-147.17;100.00;59696.56;4962140;28;51152;-54
2021/06/25 04:08:58;;;;;;;;;34.00;32.00;;;;;-147.17;100.00;59696.56;4973346;28;50964;-52
2021/06/25 04:11:23;;;;;;;;;30.00;29.25;;;;;-147.17;100.00;59696.56;4972748;28;51951;-56
2021/06/25 04:13:49;;;;;;;;;33.25;31.25;;;;;-147.17;100.00;59696.56;4973179;28;51046;-54
2021/06/25 04:16:14;;;;;;;;;33.50;32.00;;;;;-147.17;100.00;59696.56;4976419;28;51402;-50
2021/06/25 04:18:40;;;;;;;;;34.50;32.75;;;;;-147.17;100.00;59696.56;4985757;28;51072;-54
2021/06/25 04:21:05;;;;;;;;;32.25;29.25;;;;;-147.17;100.00;59696.56;4972804;28;52165;-55
2021/06/25 04:23:31;;;;;;;;;30.75;29.50;;;;;-147.17;100.00;59696.56;4975099;28;51033;-54
2021/06/25 04:25:57;;;;;;;;;34.50;31.75;;;;;-147.17;100.00;59696.56;4977437;28;51227;-55
2021/06/25 04:28:23;;;;;;;;;33.25;31.25;;;;;-147.17;100.00;59696.56;4978243;28;50872;-55
2021/06/25 04:30:49;;;;;;;;;34.00;31.50;;;;;-147.17;100.00;59696.56;4982965;28;52321;-53
2021/06/25 04:33:14;;;;;;;;;31.50;30.50;;;;;-147.17;100.00;59696.56;4981580;28;51107;-55
2021/06/25 04:35:44;;;;;;;;;30.50;30.50;;;;;-147.17;100.00;59696.56;4995348;28;51045;-52
2021/06/25 04:38:11;;;;;;;;;31.75;31.25;;;;;-147.17;100.00;59696.56;4992616;28;51302;-55
2021/06/25 04:40:39;;;;;;;;;32.25;31.00;;;;;-147.17;100.00;59696.56;4975587;28;51899;-55
2021/06/25 04:43:09;;;;;;;;;34.50;32.50;;;;;-147.17;100.00;59696.56;4957875;28;51027;-54
2021/06/25 04:45:36;;;;;;;;;31.25;30.50;;;;;-147.17;100.00;59696.56;4968726;28;51198;-54
2021/06/25 04:48:04;;;;;;;;;31.50;30.25;;;;;-147.17;100.00;59696.56;4992976;28;51127;-55
2021/06/25 04:50:30;;;;;;;;;31.00;29.25;;;;;-147.17;100.00;59696.56;4991737;28;52924;-55
2021/06/25 04:52:55;;;;;;;;;28.25;28.00;;;;;-147.17;100.00;59696.56;4975781;28;51022;-54
2021/06/25 04:55:20;;;;;;;;;37.75;34.00;;;;;-147.17;100.00;59696.56;4975832;28;50959;-56
2021/06/25 04:57:51;;;;;;;;;34.75;32.00;;;;;-147.17;100.00;59696.56;4969116;28;51209;-55
2021/06/25 05:00:17;;;;;;;;;32.50;30.75;;;;;-147.17;100.00;59696.56;4988222;28;51127;-55
2021/06/25 05:02:42;;;;;;;;;31.75;30.25;;;;;-147.17;100.00;59696.56;4982489;28;51074;-51
2021/06/25 05:05:08;;;;;;;;;33.50;31.00;;;;;-147.17;100.00;59696.56;4975796;28;51035;-55
2021/06/25 05:07:33;;;;;;;;;32.75;31.00;;;;;-147.17;100.00;59696.56;4952205;28;51366;-55
2021/06/25 05:09:59;;;;;;;;;34.00;31.50;;;;;-147.17;100.00;59696.56;4992189;28;50937;-53
2021/06/25 05:12:25;;;;;;;;;33.75;31.00;;;;;-147.17;100.00;59696.56;4987704;28;51143;-56
2021/06/25 05:14:51;;;;;;;;;39.75;34.50;;;;;-147.17;100.00;59696.56;4995322;28;50911;-55
2021/06/25 05:17:16;;;;;;;;;38.00;32.50;;;;;-147.17;100.00;59696.56;4995548;28;50857;-54
2021/06/25 05:19:41;;;;;;;;;34.25;32.75;;;;;-147.17;100.00;59696.56;4994990;28;51102;-73
2021/06/25 05:22:07;;;;;;;;;37.50;31.25;;;;;-147.17;100.00;59696.56;4995049;28;51022;-75
2021/06/25 05:24:32;;;;;;;;;33.75;32.50;;;;;-147.17;100.00;59696.56;4997388;28;51278;-72
2021/06/25 05:26:57;;;;;;;;;34.25;32.25;;;;;-147.17;100.00;59696.56;4996922;28;51115;-73
2021/06/25 05:29:23;;;;;;;;;32.75;30.50;;;;;-147.17;100.00;59696.56;4990350;28;52054;-73
2021/06/25 05:31:48;;;;;;;;;33.25;31.75;;;;;-147.17;100.00;59696.56;4989902;28;51340;-73
2021/06/25 05:34:14;;;;;;;;;33.25;31.00;;;;;-147.17;100.00;59696.56;4991821;28;51210;-73
2021/06/25 05:36:39;;;;;;;;;35.25;32.50;;;;;-147.17;100.00;59696.56;4986061;28;51487;-73
2021/06/25 05:39:04;;;;;;;;;32.25;30.75;;;;;-147.17;100.00;59696.56;4984941;28;51101;-73
2021/06/25 05:41:30;;;;;;;;;33.00;30.75;;;;;-147.17;100.00;59696.56;4979122;28;51096;-73
2021/06/25 05:43:55;;;;;;;;;35.50;32.75;;;;;-147.17;100.00;59696.56;4980092;28;50938;-73
2021/06/25 05:46:21;;;;;;;;;35.75;32.75;;;;;-147.17;100.00;59696.56;4974176;28;51164;-74
2021/06/25 05:48:46;;;;;;;;;36.25;33.00;;;;;-147.17;100.00;59696.56;4954509;28;51708;-72
2021/06/25 05:51:12;;;;;;;;;37.00;33.00;;;;;-147.17;100.00;59696.56;4990249;28;51201;-74
2021/06/25 05:53:38;;;;;;;;;32.75;30.25;;;;;-147.17;100.00;59696.56;4993593;28;50990;-72
2021/06/25 05:56:05;;;;;;;;;38.00;33.00;;;;;-147.17;100.00;59696.56;4989591;28;51157;-73
2021/06/25 05:58:31;;;;;;;;;37.00;32.50;;;;;-147.17;100.00;59696.56;4985235;28;52067;-74
2021/06/25 06:00:56;;;;;;;;;38.75;34.75;;;;;-147.17;100.00;59696.56;4979071;28;51082;-74
2021/06/25 06:03:22;;;;;;;;;35.75;32.75;;;;;-147.17;100.00;59696.56;4985382;28;51619;-72
2021/06/25 06:05:47;;;;;;;;;35.50;32.75;;;;;-147.17;100.00;59696.56;4974354;28;51272;-74
2021/06/25 06:08:12;;;;;;;;;34.75;32.50;;;;;-147.17;100.00;59696.56;4973985;28;52284;-75
2021/06/25 06:10:38;;;;;;;;;34.00;32.00;;;;;-147.17;100.00;59696.56;4977270;28;51954;-74
2021/06/25 06:13:03;;;;;;;;;31.75;29.75;;;;;-147.17;100.00;59696.56;4974301;28;51191;-74
2021/06/25 06:15:29;;;;;;;;;36.75;33.50;;;;;-147.17;100.00;59696.56;4974607;28;51216;-73
2021/06/25 06:17:57;;;;;;;;;34.00;32.25;;;;;-147.17;100.00;59696.56;4973768;28;51778;-73
2021/06/25 06:20:24;;;;;;;;;38.25;33.25;;;;;-147.17;100.00;59696.56;4978752;28;52772;-75
2021/06/25 06:33:43;;;;;;;;;33.75;30.25;;;;;-147.17;100.00;59696.56;4988288;28;50924;-74
2021/06/25 06:36:22;;;;;;;;;32.00;30.50;;;;;-147.17;100.00;59696.56;4988233;28;51245;-76
2021/06/25 06:38:48;;;;;;;;;31.25;29.25;;;;;-147.17;100.00;59696.56;4982890;28;51673;-73
2021/06/25 06:41:14;;;;;;;;;28.25;28.00;;;;;-147.17;100.00;59696.56;4981419;28;51075;-74
2021/06/25 06:43:40;;;;;;;;;34.00;32.00;;;;;-147.17;100.00;59696.56;4977478;28;51005;-74
2021/06/25 06:46:08;;;;;;;;;35.50;32.00;;;;;-147.17;100.00;59696.56;4974088;28;51074;-56
2021/06/25 06:48:34;;;;;;;;;29.75;28.25;;;;;-147.17;100.00;59696.56;4940354;28;53815;-56
2021/06/25 06:51:00;;;;;;;;;36.00;31.25;;;;;-147.17;100.00;59696.56;4983780;28;51128;-57
2021/06/25 06:53:25;;;;;;;;;33.00;30.25;;;;;-147.17;100.00;59696.56;4981120;28;51096;-56
2021/06/25 06:55:50;;;;;;;;;33.00;29.00;;;;;-147.17;100.00;59696.56;4973585;28;51269;-56
2021/06/25 06:58:16;;;;;;;;;32.50;30.75;;;;;-147.17;100.00;59696.56;4972945;28;51099;-57
2021/06/25 07:00:41;;;;;;;;;32.25;30.00;;;;;-147.17;100.00;59696.56;4964055;28;51237;-66
2021/06/25 07:03:06;;;;;;;;;31.00;30.00;;;;;-147.17;100.00;59696.56;4972271;28;51185;-65
2021/06/25 07:05:32;;;;;;;;;30.00;29.25;;;;;-147.17;100.00;59696.56;4973619;28;51409;-66
2021/06/25 07:07:57;;;;;;;;;29.00;28.00;;;;;-147.17;100.00;59696.56;4981285;28;51936;-65
2021/06/25 07:10:22;;;;;;;;;30.75;30.25;;;;;-147.17;100.00;59696.56;4990752;28;51183;-64
2021/06/25 07:12:48;;;;;;;;;29.50;28.50;;;;;-147.17;100.00;59696.56;4992087;28;51271;-65
2021/06/25 07:15:13;;;;;;;;;30.00;27.00;;;;;-147.17;100.00;59696.56;4975216;28;51106;-65
2021/06/25 07:17:39;;;;;;;;;31.25;31.00;;;;;-147.17;100.00;59696.56;4955633;28;51928;-63
2021/06/25 07:20:06;;;;;;;;;33.25;29.25;;;;;-147.17;100.00;59696.56;4983767;28;50921;-64
2021/06/25 07:22:32;;;;;;;;;29.50;28.50;;;;;-147.17;100.00;59696.56;4987323;28;51161;-65
2021/06/25 07:24:57;;;;;;;;;30.25;28.25;;;;;-147.17;100.00;59696.56;4991033;28;51403;-66
2021/06/25 07:27:23;;;;;;;;;23.50;23.50;;;;;-147.17;100.00;59696.56;4978862;28;51690;-66
2021/06/25 07:29:48;;;;;;;;;24.50;23.25;;;;;-147.17;100.00;59696.56;4977129;28;51112;-66
2021/06/25 07:32:14;;;;;;;;;26.25;26.00;;;;;-147.17;100.00;59696.56;4972674;28;52027;-66
2021/06/25 07:34:39;;;;;;;;;24.75;23.75;;;;;-147.17;100.00;59696.56;4976698;28;51101;-65
2021/06/25 07:37:05;;;;;;;;;26.25;26.25;;;;;-147.17;100.00;59696.56;4975371;28;51799;-63
2021/06/25 07:39:30;;;;;;;;;25.50;24.50;;;;;-147.17;100.00;59696.56;4981345;28;51058;-63
2021/06/25 07:41:56;;;;;;;;;28.50;26.50;;;;;-147.17;100.00;59696.56;4976692;28;51248;-62
2021/06/25 07:44:21;;;;;;;;;27.50;26.75;;;;;-147.17;100.00;59696.56;4973166;28;51180;-63
2021/06/25 07:46:47;;;;;;;;;27.00;27.00;;;;;-147.17;100.00;59696.56;4972539;28;51976;-64
2021/06/25 07:49:12;;;;;;;;;29.25;27.75;;;;;-147.17;100.00;59696.56;4972388;28;51021;-64
2021/06/25 07:51:37;;;;;;;;;27.75;25.75;;;;;-147.17;100.00;59696.56;4954467;28;51368;-63
2021/06/25 07:54:03;;;;;;;;;26.00;24.75;;;;;-147.17;100.00;59696.56;4974144;28;51199;-63
2021/06/25 07:56:28;;;;;;;;;30.00;28.00;;;;;-147.17;100.00;59696.56;4961550;28;51724;-61
2021/06/25 07:58:55;;;;;;;;;30.25;27.75;;;;;-147.17;100.00;59696.56;4977212;28;51089;-65
2021/06/25 08:01:22;;;;;;;;;31.75;30.00;;;;;-147.17;100.00;59696.56;4959619;28;51085;-64
2021/06/25 08:03:48;;;;;;;;;26.00;22.50;;;;;-147.17;100.00;59696.56;4971543;28;51185;-63
2021/06/25 08:06:13;;;;;;;;;26.25;25.25;;;;;-147.17;100.00;59696.56;4984079;28;51881;-64
2021/06/25 08:08:39;;;;;;;;;23.00;22.50;;;;;-147.17;100.00;59696.56;4983864;28;51173;-64
2021/06/25 08:11:04;;;;;;;;;27.25;26.00;;;;;-147.17;100.00;59696.56;4972396;28;51058;-64
2021/06/25 08:13:29;;;;;;;;;25.00;24.25;;;;;-147.17;100.00;59696.56;4981426;28;51087;-64
2021/06/25 08:15:55;;;;;;;;;26.00;24.50;;;;;-147.17;100.00;59696.56;4975624;28;51064;-63
2021/06/25 08:18:20;;;;;;;;;22.50;22.50;;;;;-147.17;100.00;59696.56;4990362;28;51227;-59
2021/06/25 08:20:46;;;;;;;;;27.50;26.25;;;;;-147.17;100.00;59696.56;4987691;28;51133;-57
2021/06/25 08:23:12;;;;;;;;;33.50;28.75;;;;;-147.17;100.00;59696.56;4980029;28;51659;-59
2021/06/25 08:25:38;;;;;;;;;27.50;25.50;;;;;-147.17;100.00;59696.56;4988472;28;51896;-58
2021/06/25 08:28:05;;;;;;;;;22.00;21.50;;;;;-147.17;100.00;59696.56;4983038;28;50942;-59
2021/06/25 08:30:31;;;;;;;;;23.00;23.00;;;;;-147.17;100.00;59696.56;4989679;28;51292;-60
2021/06/25 08:32:57;;;;;;;;;26.25;25.25;;;;;-147.17;100.00;59696.56;4988296;28;51304;-58
2021/06/25 08:35:23;;;;;;;;;25.00;24.50;;;;;-147.17;100.00;59696.56;4987427;28;51916;-59
2021/06/25 08:37:50;;;;;;;;;23.25;23.00;;;;;-147.17;100.00;59696.56;4993700;28;51169;-59
2021/06/25 08:40:15;;;;;;;;;21.00;21.00;;;;;-147.17;100.00;59696.56;4971932;28;51385;-60
2021/06/25 08:42:41;;;;;;;;;25.50;22.75;;;;;-147.17;100.00;59696.56;4971679;28;50977;-59
2021/06/25 08:45:08;;;;;;;;;24.25;24.25;;;;;-147.17;100.00;59696.56;4986441;28;51170;-59
2021/06/25 08:47:43;;;;;;;;;27.00;25.50;;;;;-147.17;100.00;59696.56;4982170;28;51256;-61
2021/06/25 08:50:17;;;;;;;;;26.50;26.00;;;;;-147.17;100.00;59696.56;4989654;28;51287;-59
2021/06/25 08:52:47;;;;;;;;;28.25;25.75;;;;;-147.17;100.00;59696.56;4988943;28;51294;-59
2021/06/25 08:55:15;;;;;;;;;27.00;26.00;;;;;-147.17;100.00;59696.56;4982279;28;52084;-59
2021/06/25 08:57:40;;;;;;;;;27.00;25.50;;;;;-147.17;100.00;59696.56;4976021;28;51175;-59
2021/06/25 09:00:09;;;;;;;;;21.75;21.00;;;;;-147.17;100.00;59696.56;4972838;28;51066;-58
2021/06/25 09:02:35;;;;;;;;;28.00;27.00;;;;;-147.17;100.00;59696.56;4954295;28;51080;-58
2021/06/25 09:05:05;;;;;;;;;22.00;22.00;;;;;-147.17;100.00;59696.56;4978576;28;51895;-59
2021/06/25 09:07:41;;;;;;;;;24.25;23.25;;;;;-147.17;100.00;59696.56;4975493;28;51009;-60
2021/06/25 09:10:09;;;;;;;;;23.75;23.00;;;;;-147.17;100.00;59696.56;4982502;28;51035;-57
2021/06/25 09:12:34;;;;;;;;;21.25;20.75;;;;;-147.17;100.00;59696.56;4974213;28;50956;-59
2021/06/25 09:15:05;;;;;;;;;17.50;17.25;;;;;-147.17;100.00;59696.56;4976795;28;51847;-58
2021/06/25 09:17:30;;;;;;;;;24.00;24.00;;;;;-147.17;100.00;59696.56;4979192;28;51207;-60
2021/06/25 09:19:56;;;;;;;;;27.75;25.75;;;;;-147.17;100.00;59696.56;4992493;28;51326;-59
2021/06/25 09:22:22;;;;;;;;;21.75;21.50;;;;;-147.17;100.00;59696.56;4994070;28;51131;-60
2021/06/25 09:25:10;;;;;;;;;23.00;20.75;;;;;-147.17;100.00;59696.56;4975862;28;51094;-58
2021/06/25 09:27:35;;;;;;;;;19.75;19.25;;;;;-147.17;100.00;59696.56;4979632;28;50907;-59
2021/06/25 09:30:11;;;;;;;;;18.33;18.33;;;;;-147.17;100.00;59696.56;4982634;28;50982;-58
2021/06/25 09:32:38;;;;;;;;;19.50;19.25;;;;;-147.17;100.00;59696.56;4973941;28;51320;-59
2021/06/25 09:35:18;;;;;;;;;21.25;19.75;;;;;-147.17;100.00;59696.56;4983511;28;52030;-59
2021/06/25 09:37:47;;;;;;;;;16.00;16.00;;;;;-147.17;100.00;59696.56;4963676;28;51072;-60
2021/06/25 09:40:14;;;;;;;;;18.25;18.25;;;;;-147.17;100.00;59696.56;4978035;28;51450;-59
2021/06/25 09:42:43;;;;;;;;;17.25;17.25;;;;;-147.17;100.00;59696.56;4974147;28;51310;-59
2021/06/25 09:45:19;;;;;;;;;19.00;17.00;;;;;-147.17;100.00;59696.56;4982329;28;55046;-60
2021/06/25 09:47:52;;;;;;;;;16.33;16.33;;;;;-147.17;100.00;59696.56;4979962;28;51148;-60
2021/06/25 09:50:20;;;;;;;;;14.67;14.67;;;;;-147.17;100.00;59696.56;4980945;28;50882;-58
2021/06/25 09:52:54;;;;;;;;;16.33;16.00;;;;;-147.17;100.00;59696.56;4980079;28;50965;-60
2021/06/25 09:55:20;;;;;;;;;16.67;15.67;;;;;-147.17;100.00;59696.56;4991648;28;54255;-59
2021/06/25 10:03:56;;;;;;;;;17.33;17.33;;;;;-147.17;100.00;59696.56;4986097;28;50953;-59
2021/06/25 10:06:24;;;;;;;;;18.00;18.00;;;;;-147.17;100.00;59696.56;4981321;28;51321;-60
2021/06/25 10:08:51;;;;;;;;;18.00;17.00;;;;;-147.17;100.00;59696.56;4985587;28;51048;-59
2021/06/25 10:11:19;;;;;;;;;17.00;16.00;;;;;-147.17;100.00;59696.56;4976626;28;51287;-60
2021/06/25 10:13:47;;;;;;;;;14.00;14.00;;;;;-147.17;100.00;59696.56;4960057;28;51518;-60
2021/06/25 10:16:12;;;;;;;;;16.33;15.33;;;;;-147.17;100.00;59696.56;4977025;28;52046;-59
2021/06/25 10:18:44;;;;;;;;;15.33;15.33;;;;;-147.17;100.00;59696.56;4977846;28;51094;-59
2021/06/25 10:21:15;;;;;;;;;54.00;44.50;;;;;-147.17;100.00;59696.56;4981883;28;51464;-60
2021/06/25 10:23:46;;;;;;;;;57.25;48.75;;;;;-147.17;100.00;59696.56;4986059;28;51116;-59
2021/06/25 10:26:14;;;;;;;;;13.33;13.33;;;;;-147.17;100.00;59696.56;4986445;28;52332;-59
2021/06/25 10:28:42;;;;;;;;;10.67;10.67;;;;;-147.17;100.00;59696.56;4968650;28;51643;-59
2021/06/25 10:31:11;;;;;;;;;14.67;14.33;;;;;-147.17;100.00;59696.56;4988781;28;51144;-60
2021/06/25 10:33:39;;;;;;;;;14.67;14.00;;;;;-147.17;100.00;59696.56;4989868;28;51394;-60
2021/06/25 10:36:07;;;;;;;;;19.00;18.33;;;;;-147.17;100.00;59696.56;4991878;28;50974;-64
2021/06/25 10:38:34;;;;;;;;;14.00;13.33;;;;;-147.17;100.00;59696.56;4949608;28;51074;-61
2021/06/25 10:41:05;;;;;;;;;12.67;12.33;;;;;-147.17;100.00;59696.56;4974847;28;51301;-59
2021/06/25 10:43:48;;;;;;;;;15.33;14.33;;;;;-147.17;100.00;59696.56;4971975;28;51137;-59
2021/06/25 10:46:29;;;;;;;;;14.33;13.33;;;;;-147.17;100.00;59696.56;4971938;28;51834;-59
2021/06/25 10:49:01;;;;;;;;;13.33;12.33;;;;;-147.17;100.00;59696.56;4974095;28;51088;-59
2021/06/25 10:51:31;;;;;;;;;16.00;16.00;;;;;-147.17;100.00;59696.56;4990772;28;51307;-60
2021/06/25 10:54:17;;;;;;;;;12.33;11.67;;;;;-147.17;100.00;59696.56;4970972;28;51188;-60
2021/06/25 10:57:06;;;;;;;;;11.00;10.33;;;;;-147.17;100.00;59696.56;4985351;28;51989;-60
2021/06/25 10:59:44;;;;;;;;;9.00;9.00;;;;;-147.17;100.00;59696.56;4935892;28;51224;-60
2021/06/25 11:02:10;;;;;;;;;11.33;11.00;;;;;-147.17;100.00;59696.56;4980863;28;51206;-60
2021/06/25 11:04:41;;;;;;;;;9.33;9.00;;;;;-147.17;100.00;59696.56;4971680;28;51306;-60
2021/06/25 11:07:08;;;;;;;;;9.00;8.00;;;;;-147.17;100.00;59696.56;4983798;28;51765;-59
2021/06/25 11:09:54;;;;;;;;;11.00;10.33;;;;;-147.17;100.00;59696.56;4987584;28;51273;-59